Shulls Mills, North Carolina
Current Conditions -  °F | °C
As of 9:35 AM on Monday 26 Jan 2015 (Local Time) from KTNB Reporting Station
Light Snow Light Snow  
Wind Chill: 24°   Ceiling: Unl
Heat Index: 34°   Visibility: 7mi
Dew Point: 33°   Wind: 16mph
Humidity: 95%   Direction: 290°WNW
Pressure: 29.62"   Gusts: NA
Location:  36.2085°N, 81.6605°W
Report Text: KTNB 261435Z AUTO 29014KT 7SM -SN SCT050 01/01 A2962 RMK AO2 T00120005
Loading
Personal Weather Stations






























Interactive Weather Map New forecast layout! Learn more

10-Day Weather Forecast

Advertisements
Track Severe Weather on mobile